sensor_id;sensor_type;location;lat;lon;timestamp;P1;durP1;ratioP1;P2;durP2;ratioP2
61473;SDS011;53694;49.784;30.150;2022-11-15T00:00:43;20.49;;;10.71;;
61473;SDS011;53694;49.784;30.150;2022-11-15T00:01:44;22.77;;;12.74;;
61473;SDS011;53694;49.784;30.150;2022-11-15T00:02:46;21.48;;;12.35;;
61473;SDS011;53694;49.784;30.150;2022-11-15T00:03:50;22.98;;;13.01;;
61473;SDS011;53694;49.784;30.150;2022-11-15T00:04:53;22.38;;;12.86;;
61473;SDS011;53694;49.784;30.150;2022-11-15T00:06:00;23.71;;;13.76;;
61473;SDS011;53694;49.784;30.150;2022-11-15T00:07:00;21.94;;;13.38;;
61473;SDS011;53694;49.784;30.150;2022-11-15T00:08:02;24.66;;;14.02;;
61473;SDS011;53694;49.784;30.150;2022-11-15T00:09:03;21.84;;;14.16;;
61473;SDS011;53694;49.784;30.150;2022-11-15T00:10:06;26.07;;;14.53;;
61473;SDS011;53694;49.784;30.150;2022-11-15T00:11:08;24.89;;;15.39;;
61473;SDS011;53694;49.784;30.150;2022-11-15T00:12:11;24.99;;;15.11;;
61473;SDS011;53694;49.784;30.150;2022-11-15T00:13:13;25.71;;;14.79;;
61473;SDS011;53694;49.784;30.150;2022-11-15T00:14:14;25.71;;;13.41;;
61473;SDS011;53694;49.784;30.150;2022-11-15T00:15:16;25.21;;;12.86;;
61473;SDS011;53694;49.784;30.150;2022-11-15T00:16:17;19.33;;;12.35;;
61473;SDS011;53694;49.784;30.150;2022-11-15T00:17:19;20.12;;;12.59;;
61473;SDS011;53694;49.784;30.150;2022-11-15T00:18:21;22.41;;;11.34;;
61473;SDS011;53694;49.784;30.150;2022-11-15T00:19:22;22.17;;;11.49;;
61473;SDS011;53694;49.784;30.150;2022-11-15T00:20:24;19.10;;;10.59;;
61473;SDS011;53694;49.784;30.150;2022-11-15T00:21:25;15.87;;;9.74;;
61473;SDS011;53694;49.784;30.150;2022-11-15T00:22:33;19.10;;;10.57;;
61473;SDS011;53694;49.784;30.150;2022-11-15T00:23:35;21.57;;;11.41;;
61473;SDS011;53694;49.784;30.150;2022-11-15T00:24:37;21.21;;;14.23;;
61473;SDS011;53694;49.784;30.150;2022-11-15T00:25:38;23.24;;;14.06;;
61473;SDS011;53694;49.784;30.150;2022-11-15T00:26:40;24.66;;;14.66;;
61473;SDS011;53694;49.784;30.150;2022-11-15T00:27:42;23.82;;;13.37;;
61473;SDS011;53694;49.784;30.150;2022-11-15T00:28:43;24.92;;;14.19;;
61473;SDS011;53694;49.784;30.150;2022-11-15T00:29:45;26.90;;;14.51;;
61473;SDS011;53694;49.784;30.150;2022-11-15T00:30:47;25.83;;;16.05;;
61473;SDS011;53694;49.784;30.150;2022-11-15T00:31:48;22.51;;;14.24;;
61473;SDS011;53694;49.784;30.150;2022-11-15T00:32:50;28.66;;;15.01;;
61473;SDS011;53694;49.784;30.150;2022-11-15T00:33:52;30.37;;;17.58;;
61473;SDS011;53694;49.784;30.150;2022-11-15T00:34:53;23.64;;;13.11;;
61473;SDS011;53694;49.784;30.150;2022-11-15T00:36:05;19.99;;;11.22;;
61473;SDS011;53694;49.784;30.150;2022-11-15T00:37:08;21.02;;;11.68;;
61473;SDS011;53694;49.784;30.150;2022-11-15T00:38:10;18.57;;;9.81;;
61473;SDS011;53694;49.784;30.150;2022-11-15T00:39:11;19.67;;;10.65;;
61473;SDS011;53694;49.784;30.150;2022-11-15T00:40:13;23.93;;;11.95;;
61473;SDS011;53694;49.784;30.150;2022-11-15T00:41:15;18.90;;;10.49;;
61473;SDS011;53694;49.784;30.150;2022-11-15T00:42:17;18.96;;;10.69;;
61473;SDS011;53694;49.784;30.150;2022-11-15T00:43:18;17.26;;;10.13;;
61473;SDS011;53694;49.784;30.150;2022-11-15T00:44:20;17.79;;;10.27;;
61473;SDS011;53694;49.784;30.150;2022-11-15T00:45:21;20.81;;;10.81;;
61473;SDS011;53694;49.784;30.150;2022-11-15T00:46:23;21.89;;;12.19;;
61473;SDS011;53694;49.784;30.150;2022-11-15T00:47:24;19.78;;;10.71;;
61473;SDS011;53694;49.784;30.150;2022-11-15T00:48:26;18.44;;;10.06;;
61473;SDS011;53694;49.784;30.150;2022-11-15T00:49:27;20.45;;;10.82;;
61473;SDS011;53694;49.784;30.150;2022-11-15T00:50:29;25.21;;;12.66;;
61473;SDS011;53694;49.784;30.150;2022-11-15T00:51:30;21.86;;;11.16;;
61473;SDS011;53694;49.784;30.150;2022-11-15T00:52:32;24.76;;;12.65;;
61473;SDS011;53694;49.784;30.150;2022-11-15T00:53:33;23.11;;;12.72;;
61473;SDS011;53694;49.784;30.150;2022-11-15T00:54:35;22.52;;;13.19;;
61473;SDS011;53694;49.784;30.150;2022-11-15T00:55:37;20.96;;;11.41;;
61473;SDS011;53694;49.784;30.150;2022-11-15T00:56:38;18.03;;;10.15;;
61473;SDS011;53694;49.784;30.150;2022-11-15T00:57:40;20.61;;;10.83;;
61473;SDS011;53694;49.784;30.150;2022-11-15T00:58:41;22.44;;;11.21;;
61473;SDS011;53694;49.784;30.150;2022-11-15T00:59:43;17.64;;;9.77;;
61473;SDS011;53694;49.784;30.150;2022-11-15T01:00:45;17.96;;;9.69;;
61473;SDS011;53694;49.784;30.150;2022-11-15T01:01:46;17.64;;;9.44;;
61473;SDS011;53694;49.784;30.150;2022-11-15T01:02:48;18.55;;;9.46;;
61473;SDS011;53694;49.784;30.150;2022-11-15T01:03:49;18.28;;;9.64;;
61473;SDS011;53694;49.784;30.150;2022-11-15T01:04:51;19.04;;;10.70;;
61473;SDS011;53694;49.784;30.150;2022-11-15T01:05:52;18.23;;;10.17;;
61473;SDS011;53694;49.784;30.150;2022-11-15T01:06:53;19.16;;;10.83;;
61473;SDS011;53694;49.784;30.150;2022-11-15T01:07:55;20.61;;;10.46;;
61473;SDS011;53694;49.784;30.150;2022-11-15T01:08:57;19.31;;;10.81;;
61473;SDS011;53694;49.784;30.150;2022-11-15T01:09:58;19.79;;;11.56;;
61473;SDS011;53694;49.784;30.150;2022-11-15T01:11:04;22.38;;;11.92;;
61473;SDS011;53694;49.784;30.150;2022-11-15T01:12:08;23.08;;;11.26;;
61473;SDS011;53694;49.784;30.150;2022-11-15T01:13:09;22.49;;;11.89;;
61473;SDS011;53694;49.784;30.150;2022-11-15T01:14:11;22.81;;;12.62;;
61473;SDS011;53694;49.784;30.150;2022-11-15T01:15:12;24.99;;;12.50;;
61473;SDS011;53694;49.784;30.150;2022-11-15T01:16:16;18.84;;;10.95;;
61473;SDS011;53694;49.784;30.150;2022-11-15T01:17:18;18.30;;;9.42;;
61473;SDS011;53694;49.784;30.150;2022-11-15T01:18:20;16.25;;;8.89;;
61473;SDS011;53694;49.784;30.150;2022-11-15T01:19:22;14.72;;;8.76;;
61473;SDS011;53694;49.784;30.150;2022-11-15T01:20:24;14.98;;;8.59;;
61473;SDS011;53694;49.784;30.150;2022-11-15T01:21:25;15.25;;;8.98;;
61473;SDS011;53694;49.784;30.150;2022-11-15T01:22:27;14.93;;;7.75;;
61473;SDS011;53694;49.784;30.150;2022-11-15T01:23:28;15.16;;;8.22;;
61473;SDS011;53694;49.784;30.150;2022-11-15T01:24:30;17.14;;;9.79;;
61473;SDS011;53694;49.784;30.150;2022-11-15T01:25:31;16.85;;;9.02;;
61473;SDS011;53694;49.784;30.150;2022-11-15T01:26:33;17.95;;;10.05;;
61473;SDS011;53694;49.784;30.150;2022-11-15T01:27:35;18.49;;;10.34;;
61473;SDS011;53694;49.784;30.150;2022-11-15T01:28:37;19.61;;;10.86;;
61473;SDS011;53694;49.784;30.150;2022-11-15T01:29:40;19.49;;;11.95;;
61473;SDS011;53694;49.784;30.150;2022-11-15T01:30:42;23.24;;;11.91;;
61473;SDS011;53694;49.784;30.150;2022-11-15T01:31:43;22.64;;;12.67;;
61473;SDS011;53694;49.784;30.150;2022-11-15T01:32:44;27.98;;;13.12;;
61473;SDS011;53694;49.784;30.150;2022-11-15T01:33:46;24.09;;;13.06;;
61473;SDS011;53694;49.784;30.150;2022-11-15T01:34:49;24.44;;;13.77;;
61473;SDS011;53694;49.784;30.150;2022-11-15T01:35:50;24.52;;;12.94;;
61473;SDS011;53694;49.784;30.150;2022-11-15T01:36:52;23.20;;;12.46;;
61473;SDS011;53694;49.784;30.150;2022-11-15T01:37:53;20.21;;;11.31;;
61473;SDS011;53694;49.784;30.150;2022-11-15T01:38:56;19.04;;;10.11;;
61473;SDS011;53694;49.784;30.150;2022-11-15T01:39:59;19.00;;;9.62;;
61473;SDS011;53694;49.784;30.150;2022-11-15T01:41:01;18.91;;;9.94;;
61473;SDS011;53694;49.784;30.150;2022-11-15T01:42:02;18.48;;;9.56;;
61473;SDS011;53694;49.784;30.150;2022-11-15T01:45:36;21.48;;;10.91;;
61473;SDS011;53694;49.784;30.150;2022-11-15T01:46:38;25.36;;;11.65;;
61473;SDS011;53694;49.784;30.150;2022-11-15T01:47:40;23.91;;;12.11;;
61473;SDS011;53694;49.784;30.150;2022-11-15T01:48:54;24.58;;;12.36;;
61473;SDS011;53694;49.784;30.150;2022-11-15T01:50:04;24.84;;;12.05;;
61473;SDS011;53694;49.784;30.150;2022-11-15T01:51:11;24.81;;;12.15;;
61473;SDS011;53694;49.784;30.150;2022-11-15T01:52:17;23.26;;;11.67;;
61473;SDS011;53694;49.784;30.150;2022-11-15T01:53:21;27.73;;;13.29;;
61473;SDS011;53694;49.784;30.150;2022-11-15T01:54:26;25.33;;;12.53;;
61473;SDS011;53694;49.784;30.150;2022-11-15T01:55:28;28.03;;;15.12;;
61473;SDS011;53694;49.784;30.150;2022-11-15T01:56:31;26.87;;;14.12;;
61473;SDS011;53694;49.784;30.150;2022-11-15T01:57:35;27.58;;;13.69;;
61473;SDS011;53694;49.784;30.150;2022-11-15T01:58:38;23.74;;;12.18;;
61473;SDS011;53694;49.784;30.150;2022-11-15T01:59:42;25.23;;;11.61;;
61473;SDS011;53694;49.784;30.150;2022-11-15T02:00:46;24.99;;;11.74;;
61473;SDS011;53694;49.784;30.150;2022-11-15T02:01:47;21.91;;;11.24;;
61473;SDS011;53694;49.784;30.150;2022-11-15T02:02:49;21.85;;;10.93;;
61473;SDS011;53694;49.784;30.150;2022-11-15T02:03:54;22.23;;;11.06;;
61473;SDS011;53694;49.784;30.150;2022-11-15T02:04:57;22.76;;;10.99;;
61473;SDS011;53694;49.784;30.150;2022-11-15T02:05:59;19.42;;;10.63;;
61473;SDS011;53694;49.784;30.150;2022-11-15T02:07:01;22.22;;;11.03;;
61473;SDS011;53694;49.784;30.150;2022-11-15T02:08:05;25.16;;;13.10;;
61473;SDS011;53694;49.784;30.150;2022-11-15T02:09:07;23.23;;;12.69;;
61473;SDS011;53694;49.784;30.150;2022-11-15T02:10:11;24.23;;;13.13;;
61473;SDS011;53694;49.784;30.150;2022-11-15T02:11:15;22.13;;;12.27;;
61473;SDS011;53694;49.784;30.150;2022-11-15T02:12:19;26.44;;;13.61;;
61473;SDS011;53694;49.784;30.150;2022-11-15T02:13:22;30.94;;;13.83;;
61473;SDS011;53694;49.784;30.150;2022-11-15T02:14:24;32.42;;;15.59;;
61473;SDS011;53694;49.784;30.150;2022-11-15T02:15:38;29.36;;;14.33;;
61473;SDS011;53694;49.784;30.150;2022-11-15T02:16:37;34.92;;;15.81;;
61473;SDS011;53694;49.784;30.150;2022-11-15T02:18:02;31.45;;;14.96;;
61473;SDS011;53694;49.784;30.150;2022-11-15T02:19:20;25.56;;;12.19;;
61473;SDS011;53694;49.784;30.150;2022-11-15T02:31:49;22.34;;;11.25;;
61473;SDS011;53694;49.784;30.150;2022-11-15T02:40:17;24.91;;;11.17;;
61473;SDS011;53694;49.784;30.150;2022-11-15T02:42:36;20.71;;;9.54;;
61473;SDS011;53694;49.784;30.150;2022-11-15T02:44:51;21.86;;;9.34;;
61473;SDS011;53694;49.784;30.150;2022-11-15T02:47:20;18.81;;;8.79;;
61473;SDS011;53694;49.784;30.150;2022-11-15T02:48:23;18.09;;;8.64;;
61473;SDS011;53694;49.784;30.150;2022-11-15T02:49:28;17.74;;;8.54;;
61473;SDS011;53694;49.784;30.150;2022-11-15T02:50:32;18.83;;;9.19;;
61473;SDS011;53694;49.784;30.150;2022-11-15T02:51:34;20.26;;;9.60;;
61473;SDS011;53694;49.784;30.150;2022-11-15T02:52:36;21.17;;;9.71;;
61473;SDS011;53694;49.784;30.150;2022-11-15T02:53:38;21.87;;;10.16;;
61473;SDS011;53694;49.784;30.150;2022-11-15T02:54:39;21.99;;;10.52;;
61473;SDS011;53694;49.784;30.150;2022-11-15T02:55:42;20.94;;;10.29;;
61473;SDS011;53694;49.784;30.150;2022-11-15T02:56:46;23.16;;;11.27;;
61473;SDS011;53694;49.784;30.150;2022-11-15T02:57:57;22.49;;;11.63;;
61473;SDS011;53694;49.784;30.150;2022-11-15T03:00:39;22.01;;;10.49;;
61473;SDS011;53694;49.784;30.150;2022-11-15T03:05:53;16.98;;;8.17;;
61473;SDS011;53694;49.784;30.150;2022-11-15T03:07:07;23.23;;;8.92;;
61473;SDS011;53694;49.784;30.150;2022-11-15T03:08:17;16.69;;;8.30;;
61473;SDS011;53694;49.784;30.150;2022-11-15T03:09:40;16.76;;;7.61;;
61473;SDS011;53694;49.784;30.150;2022-11-15T03:11:59;18.53;;;9.13;;
61473;SDS011;53694;49.784;30.150;2022-11-15T03:14:24;17.32;;;8.24;;
61473;SDS011;53694;49.784;30.150;2022-11-15T03:15:37;21.32;;;8.54;;
61473;SDS011;53694;49.784;30.150;2022-11-15T03:18:58;15.88;;;8.12;;
61473;SDS011;53694;49.784;30.150;2022-11-15T03:20:07;16.51;;;8.98;;
61473;SDS011;53694;49.784;30.150;2022-11-15T03:21:12;17.82;;;8.43;;
61473;SDS011;53694;49.784;30.150;2022-11-15T03:22:19;17.73;;;9.06;;
61473;SDS011;53694;49.784;30.150;2022-11-15T03:23:22;15.78;;;7.78;;
61473;SDS011;53694;49.784;30.150;2022-11-15T03:24:24;12.34;;;6.52;;
61473;SDS011;53694;49.784;30.150;2022-11-15T03:25:29;11.34;;;6.24;;
61473;SDS011;53694;49.784;30.150;2022-11-15T03:26:34;12.44;;;6.43;;
61473;SDS011;53694;49.784;30.150;2022-11-15T03:27:39;14.39;;;6.76;;
61473;SDS011;53694;49.784;30.150;2022-11-15T03:28:57;10.59;;;5.76;;
61473;SDS011;53694;49.784;30.150;2022-11-15T03:30:02;11.68;;;5.88;;
61473;SDS011;53694;49.784;30.150;2022-11-15T03:31:06;12.68;;;5.91;;
61473;SDS011;53694;49.784;30.150;2022-11-15T03:32:11;10.64;;;5.74;;
61473;SDS011;53694;49.784;30.150;2022-11-15T03:33:15;11.67;;;6.13;;
61473;SDS011;53694;49.784;30.150;2022-11-15T03:35:25;12.54;;;6.13;;
61473;SDS011;53694;49.784;30.150;2022-11-15T03:36:30;13.32;;;7.13;;
61473;SDS011;53694;49.784;30.150;2022-11-15T03:37:45;13.02;;;7.01;;
61473;SDS011;53694;49.784;30.150;2022-11-15T03:38:48;12.29;;;7.00;;
61473;SDS011;53694;49.784;30.150;2022-11-15T03:39:52;13.41;;;7.40;;
61473;SDS011;53694;49.784;30.150;2022-11-15T03:41:01;16.49;;;7.55;;
61473;SDS011;53694;49.784;30.150;2022-11-15T03:43:25;14.51;;;8.62;;
61473;SDS011;53694;49.784;30.150;2022-11-15T03:45:38;14.08;;;7.74;;
61473;SDS011;53694;49.784;30.150;2022-11-15T03:46:48;11.44;;;6.44;;
61473;SDS011;53694;49.784;30.150;2022-11-15T03:47:53;12.69;;;6.46;;
61473;SDS011;53694;49.784;30.150;2022-11-15T03:49:06;14.33;;;6.48;;
61473;SDS011;53694;49.784;30.150;2022-11-15T03:50:15;13.12;;;6.44;;
61473;SDS011;53694;49.784;30.150;2022-11-15T03:51:19;13.45;;;6.92;;
61473;SDS011;53694;49.784;30.150;2022-11-15T03:52:21;12.75;;;6.80;;
61473;SDS011;53694;49.784;30.150;2022-11-15T03:53:23;11.52;;;6.66;;
61473;SDS011;53694;49.784;30.150;2022-11-15T03:54:25;12.89;;;6.31;;
61473;SDS011;53694;49.784;30.150;2022-11-15T03:55:27;10.18;;;5.71;;
61473;SDS011;53694;49.784;30.150;2022-11-15T03:56:28;12.04;;;6.19;;
61473;SDS011;53694;49.784;30.150;2022-11-15T03:57:30;12.35;;;7.14;;
61473;SDS011;53694;49.784;30.150;2022-11-15T03:58:31;13.91;;;7.55;;
61473;SDS011;53694;49.784;30.150;2022-11-15T03:59:33;14.29;;;7.19;;
61473;SDS011;53694;49.784;30.150;2022-11-15T04:00:34;13.46;;;7.56;;
61473;SDS011;53694;49.784;30.150;2022-11-15T04:01:36;13.42;;;7.13;;
61473;SDS011;53694;49.784;30.150;2022-11-15T04:02:38;16.45;;;7.91;;
61473;SDS011;53694;49.784;30.150;2022-11-15T04:03:39;14.35;;;8.50;;
61473;SDS011;53694;49.784;30.150;2022-11-15T04:04:41;15.55;;;8.71;;
61473;SDS011;53694;49.784;30.150;2022-11-15T04:05:42;18.00;;;9.46;;
61473;SDS011;53694;49.784;30.150;2022-11-15T04:06:44;14.49;;;8.03;;
61473;SDS011;53694;49.784;30.150;2022-11-15T04:07:45;13.39;;;6.43;;
61473;SDS011;53694;49.784;30.150;2022-11-15T04:08:47;13.99;;;7.27;;
61473;SDS011;53694;49.784;30.150;2022-11-15T04:09:48;12.49;;;6.96;;
61473;SDS011;53694;49.784;30.150;2022-11-15T04:10:50;13.76;;;6.69;;
61473;SDS011;53694;49.784;30.150;2022-11-15T04:11:52;11.24;;;6.88;;
61473;SDS011;53694;49.784;30.150;2022-11-15T04:12:53;11.26;;;6.14;;
61473;SDS011;53694;49.784;30.150;2022-11-15T04:13:55;15.01;;;6.64;;
61473;SDS011;53694;49.784;30.150;2022-11-15T04:15:02;12.20;;;6.20;;
61473;SDS011;53694;49.784;30.150;2022-11-15T04:16:02;12.16;;;6.67;;
61473;SDS011;53694;49.784;30.150;2022-11-15T04:17:03;16.27;;;7.98;;
61473;SDS011;53694;49.784;30.150;2022-11-15T04:18:05;13.26;;;6.78;;
61473;SDS011;53694;49.784;30.150;2022-11-15T04:19:06;17.31;;;7.63;;
61473;SDS011;53694;49.784;30.150;2022-11-15T04:20:10;16.29;;;8.44;;
61473;SDS011;53694;49.784;30.150;2022-11-15T04:21:13;14.23;;;7.64;;
61473;SDS011;53694;49.784;30.150;2022-11-15T04:22:15;16.91;;;8.87;;
61473;SDS011;53694;49.784;30.150;2022-11-15T04:23:20;17.38;;;8.81;;
61473;SDS011;53694;49.784;30.150;2022-11-15T04:24:23;17.36;;;8.82;;
61473;SDS011;53694;49.784;30.150;2022-11-15T04:25:24;20.11;;;10.01;;
61473;SDS011;53694;49.784;30.150;2022-11-15T04:26:26;15.37;;;8.54;;
61473;SDS011;53694;49.784;30.150;2022-11-15T04:27:28;16.41;;;8.13;;
61473;SDS011;53694;49.784;30.150;2022-11-15T04:28:29;13.81;;;7.26;;
61473;SDS011;53694;49.784;30.150;2022-11-15T04:29:31;13.66;;;6.91;;
61473;SDS011;53694;49.784;30.150;2022-11-15T04:30:33;11.39;;;6.16;;
61473;SDS011;53694;49.784;30.150;2022-11-15T04:31:34;13.06;;;6.52;;
61473;SDS011;53694;49.784;30.150;2022-11-15T04:32:36;12.96;;;7.19;;
61473;SDS011;53694;49.784;30.150;2022-11-15T04:33:37;12.49;;;6.44;;
61473;SDS011;53694;49.784;30.150;2022-11-15T04:34:39;11.47;;;6.70;;
61473;SDS011;53694;49.784;30.150;2022-11-15T04:35:41;10.79;;;6.08;;
61473;SDS011;53694;49.784;30.150;2022-11-15T04:36:43;13.61;;;6.78;;
61473;SDS011;53694;49.784;30.150;2022-11-15T04:37:45;12.49;;;6.35;;
61473;SDS011;53694;49.784;30.150;2022-11-15T04:38:47;15.11;;;6.99;;
61473;SDS011;53694;49.784;30.150;2022-11-15T04:39:48;14.84;;;7.24;;
61473;SDS011;53694;49.784;30.150;2022-11-15T04:40:50;14.24;;;7.92;;
61473;SDS011;53694;49.784;30.150;2022-11-15T04:41:51;13.02;;;7.64;;
61473;SDS011;53694;49.784;30.150;2022-11-15T04:42:53;14.03;;;7.67;;
61473;SDS011;53694;49.784;30.150;2022-11-15T04:43:55;17.13;;;8.64;;
61473;SDS011;53694;49.784;30.150;2022-11-15T04:44:56;15.36;;;8.31;;
61473;SDS011;53694;49.784;30.150;2022-11-15T04:45:58;16.77;;;8.29;;
61473;SDS011;53694;49.784;30.150;2022-11-15T04:46:59;14.33;;;8.03;;
61473;SDS011;53694;49.784;30.150;2022-11-15T04:48:02;14.17;;;7.07;;
61473;SDS011;53694;49.784;30.150;2022-11-15T04:49:03;13.65;;;6.57;;
61473;SDS011;53694;49.784;30.150;2022-11-15T04:50:06;12.15;;;6.62;;
61473;SDS011;53694;49.784;30.150;2022-11-15T04:51:07;13.93;;;7.01;;
61473;SDS011;53694;49.784;30.150;2022-11-15T04:52:09;11.99;;;6.28;;
61473;SDS011;53694;49.784;30.150;2022-11-15T04:53:11;10.97;;;6.07;;
61473;SDS011;53694;49.784;30.150;2022-11-15T04:54:12;12.71;;;6.01;;
61473;SDS011;53694;49.784;30.150;2022-11-15T04:55:14;10.24;;;5.56;;
61473;SDS011;53694;49.784;30.150;2022-11-15T04:56:16;13.83;;;6.14;;
61473;SDS011;53694;49.784;30.150;2022-11-15T04:57:18;11.09;;;6.45;;
61473;SDS011;53694;49.784;30.150;2022-11-15T04:58:19;11.81;;;7.14;;
61473;SDS011;53694;49.784;30.150;2022-11-15T04:59:21;15.67;;;7.04;;
61473;SDS011;53694;49.784;30.150;2022-11-15T05:00:22;15.00;;;7.69;;
61473;SDS011;53694;49.784;30.150;2022-11-15T05:01:24;15.25;;;8.17;;
61473;SDS011;53694;49.784;30.150;2022-11-15T05:02:25;14.16;;;8.39;;
61473;SDS011;53694;49.784;30.150;2022-11-15T05:03:27;13.16;;;7.69;;
61473;SDS011;53694;49.784;30.150;2022-11-15T05:04:29;17.31;;;9.06;;
61473;SDS011;53694;49.784;30.150;2022-11-15T05:05:30;15.99;;;9.22;;
61473;SDS011;53694;49.784;30.150;2022-11-15T05:06:32;19.64;;;9.19;;
61473;SDS011;53694;49.784;30.150;2022-11-15T05:07:33;13.61;;;8.21;;
61473;SDS011;53694;49.784;30.150;2022-11-15T05:08:35;16.37;;;7.88;;
61473;SDS011;53694;49.784;30.150;2022-11-15T05:09:36;12.72;;;6.83;;
61473;SDS011;53694;49.784;30.150;2022-11-15T05:10:38;14.13;;;6.81;;
61473;SDS011;53694;49.784;30.150;2022-11-15T05:11:40;14.63;;;7.15;;
61473;SDS011;53694;49.784;30.150;2022-11-15T05:12:42;14.53;;;6.84;;
61473;SDS011;53694;49.784;30.150;2022-11-15T05:13:44;12.84;;;6.90;;
61473;SDS011;53694;49.784;30.150;2022-11-15T05:14:45;15.36;;;6.61;;
61473;SDS011;53694;49.784;30.150;2022-11-15T05:15:47;14.75;;;6.64;;
61473;SDS011;53694;49.784;30.150;2022-11-15T05:16:48;13.47;;;7.03;;
61473;SDS011;53694;49.784;30.150;2022-11-15T05:17:50;13.75;;;7.16;;
61473;SDS011;53694;49.784;30.150;2022-11-15T05:18:52;15.58;;;7.72;;
61473;SDS011;53694;49.784;30.150;2022-11-15T05:19:55;17.46;;;7.99;;
61473;SDS011;53694;49.784;30.150;2022-11-15T05:21:07;15.16;;;8.11;;
61473;SDS011;53694;49.784;30.150;2022-11-15T05:22:07;17.05;;;8.86;;
61473;SDS011;53694;49.784;30.150;2022-11-15T05:23:08;18.93;;;10.11;;
61473;SDS011;53694;49.784;30.150;2022-11-15T05:24:10;18.90;;;10.01;;
61473;SDS011;53694;49.784;30.150;2022-11-15T05:25:11;18.41;;;9.92;;
61473;SDS011;53694;49.784;30.150;2022-11-15T05:26:14;17.95;;;9.84;;
61473;SDS011;53694;49.784;30.150;2022-11-15T05:27:17;20.49;;;10.38;;
61473;SDS011;53694;49.784;30.150;2022-11-15T05:28:18;15.16;;;9.24;;
61473;SDS011;53694;49.784;30.150;2022-11-15T05:29:20;15.94;;;8.11;;
61473;SDS011;53694;49.784;30.150;2022-11-15T05:30:22;16.50;;;8.31;;
61473;SDS011;53694;49.784;30.150;2022-11-15T05:31:24;15.56;;;8.01;;
61473;SDS011;53694;49.784;30.150;2022-11-15T05:32:26;13.52;;;7.69;;
61473;SDS011;53694;49.784;30.150;2022-11-15T05:33:29;13.96;;;7.07;;
61473;SDS011;53694;49.784;30.150;2022-11-15T05:34:31;15.89;;;8.09;;
61473;SDS011;53694;49.784;30.150;2022-11-15T05:35:34;18.23;;;7.87;;
61473;SDS011;53694;49.784;30.150;2022-11-15T05:36:41;15.84;;;7.82;;
61473;SDS011;53694;49.784;30.150;2022-11-15T05:37:43;14.17;;;7.89;;
61473;SDS011;53694;49.784;30.150;2022-11-15T05:38:45;16.81;;;8.54;;
61473;SDS011;53694;49.784;30.150;2022-11-15T05:39:47;18.01;;;9.55;;
61473;SDS011;53694;49.784;30.150;2022-11-15T05:40:49;33.08;;;15.69;;
61473;SDS011;53694;49.784;30.150;2022-11-15T05:41:55;18.34;;;9.47;;
61473;SDS011;53694;49.784;30.150;2022-11-15T05:42:56;19.43;;;10.02;;
61473;SDS011;53694;49.784;30.150;2022-11-15T05:44:01;21.16;;;10.83;;
61473;SDS011;53694;49.784;30.150;2022-11-15T05:45:04;19.74;;;10.86;;
61473;SDS011;53694;49.784;30.150;2022-11-15T05:46:09;22.64;;;11.96;;
61473;SDS011;53694;49.784;30.150;2022-11-15T05:47:12;28.29;;;13.37;;
61473;SDS011;53694;49.784;30.150;2022-11-15T05:48:16;28.98;;;12.68;;
61473;SDS011;53694;49.784;30.150;2022-11-15T05:49:20;18.18;;;9.69;;
61473;SDS011;53694;49.784;30.150;2022-11-15T05:50:24;16.97;;;8.43;;
61473;SDS011;53694;49.784;30.150;2022-11-15T05:51:26;20.89;;;9.39;;
61473;SDS011;53694;49.784;30.150;2022-11-15T05:52:29;14.31;;;7.97;;
61473;SDS011;53694;49.784;30.150;2022-11-15T05:53:33;18.61;;;9.45;;
61473;SDS011;53694;49.784;30.150;2022-11-15T05:54:36;17.09;;;8.77;;
61473;SDS011;53694;49.784;30.150;2022-11-15T05:55:38;22.53;;;10.43;;
61473;SDS011;53694;49.784;30.150;2022-11-15T05:56:42;16.82;;;8.70;;
61473;SDS011;53694;49.784;30.150;2022-11-15T05:57:44;30.85;;;14.67;;
61473;SDS011;53694;49.784;30.150;2022-11-15T05:58:46;16.93;;;8.90;;
61473;SDS011;53694;49.784;30.150;2022-11-15T05:59:48;17.60;;;9.24;;
61473;SDS011;53694;49.784;30.150;2022-11-15T06:00:49;16.75;;;9.09;;
61473;SDS011;53694;49.784;30.150;2022-11-15T06:01:51;19.05;;;10.31;;
61473;SDS011;53694;49.784;30.150;2022-11-15T06:02:52;21.45;;;10.66;;
61473;SDS011;53694;49.784;30.150;2022-11-15T06:03:54;19.78;;;9.76;;
61473;SDS011;53694;49.784;30.150;2022-11-15T06:04:56;19.04;;;9.76;;
61473;SDS011;53694;49.784;30.150;2022-11-15T06:05:57;22.71;;;10.48;;
61473;SDS011;53694;49.784;30.150;2022-11-15T06:06:59;21.43;;;11.09;;
61473;SDS011;53694;49.784;30.150;2022-11-15T06:08:00;21.27;;;11.14;;
61473;SDS011;53694;49.784;30.150;2022-11-15T06:09:02;23.73;;;11.83;;
61473;SDS011;53694;49.784;30.150;2022-11-15T06:10:04;21.16;;;10.06;;
61473;SDS011;53694;49.784;30.150;2022-11-15T06:11:07;17.51;;;9.19;;
61473;SDS011;53694;49.784;30.150;2022-11-15T06:12:08;15.75;;;8.45;;
61473;SDS011;53694;49.784;30.150;2022-11-15T06:13:10;17.54;;;8.68;;
61473;SDS011;53694;49.784;30.150;2022-11-15T06:14:12;13.75;;;7.31;;
61473;SDS011;53694;49.784;30.150;2022-11-15T06:15:13;15.19;;;7.99;;
61473;SDS011;53694;49.784;30.150;2022-11-15T06:16:15;16.45;;;7.39;;
61473;SDS011;53694;49.784;30.150;2022-11-15T06:17:16;16.73;;;7.94;;
61473;SDS011;53694;49.784;30.150;2022-11-15T06:18:18;13.95;;;7.01;;
61473;SDS011;53694;49.784;30.150;2022-11-15T06:19:19;14.38;;;7.80;;
61473;SDS011;53694;49.784;30.150;2022-11-15T06:20:21;15.90;;;7.79;;
61473;SDS011;53694;49.784;30.150;2022-11-15T06:21:22;19.17;;;9.89;;
61473;SDS011;53694;49.784;30.150;2022-11-15T06:22:24;19.42;;;10.54;;
61473;SDS011;53694;49.784;30.150;2022-11-15T06:23:26;16.30;;;9.47;;
61473;SDS011;53694;49.784;30.150;2022-11-15T06:24:28;20.21;;;10.61;;
61473;SDS011;53694;49.784;30.150;2022-11-15T06:25:30;18.62;;;11.12;;
61473;SDS011;53694;49.784;30.150;2022-11-15T06:26:32;21.97;;;11.51;;
61473;SDS011;53694;49.784;30.150;2022-11-15T06:27:34;21.62;;;11.41;;
61473;SDS011;53694;49.784;30.150;2022-11-15T06:28:36;23.31;;;11.69;;
61473;SDS011;53694;49.784;30.150;2022-11-15T06:29:37;22.43;;;13.01;;
61473;SDS011;53694;49.784;30.150;2022-11-15T06:30:39;21.95;;;11.85;;
61473;SDS011;53694;49.784;30.150;2022-11-15T06:31:40;20.81;;;10.04;;
61473;SDS011;53694;49.784;30.150;2022-11-15T06:32:42;19.06;;;9.46;;
61473;SDS011;53694;49.784;30.150;2022-11-15T06:33:43;15.84;;;7.32;;
61473;SDS011;53694;49.784;30.150;2022-11-15T06:34:45;12.96;;;6.94;;
61473;SDS011;53694;49.784;30.150;2022-11-15T06:35:47;11.78;;;6.20;;
61473;SDS011;53694;49.784;30.150;2022-11-15T06:36:48;15.67;;;7.06;;
61473;SDS011;53694;49.784;30.150;2022-11-15T06:37:50;13.36;;;6.69;;
61473;SDS011;53694;49.784;30.150;2022-11-15T06:38:51;15.56;;;7.13;;
61473;SDS011;53694;49.784;30.150;2022-11-15T06:39:53;15.66;;;7.54;;
61473;SDS011;53694;49.784;30.150;2022-11-15T06:40:54;12.17;;;6.31;;
61473;SDS011;53694;49.784;30.150;2022-11-15T06:41:56;14.09;;;7.75;;
61473;SDS011;53694;49.784;30.150;2022-11-15T06:42:58;13.69;;;7.45;;
61473;SDS011;53694;49.784;30.150;2022-11-15T06:44:00;16.89;;;8.68;;
61473;SDS011;53694;49.784;30.150;2022-11-15T06:45:02;14.65;;;7.87;;